createdAt,value
2019-02-18T00:00:03.897Z,49.77
2019-02-18T00:02:37.505Z,43.23
2019-02-18T00:05:08.884Z,49.50
2019-02-18T00:07:40.134Z,49.40
2019-02-18T00:10:11.330Z,46.00
2019-02-18T00:12:42.542Z,46.67
2019-02-18T00:15:13.743Z,48.97
2019-02-18T00:17:44.894Z,49.70
2019-02-18T00:20:16.134Z,55.00
2019-02-18T00:22:47.302Z,51.70
2019-02-18T00:25:18.457Z,52.10
2019-02-18T00:27:49.728Z,52.17
2019-02-18T00:30:20.952Z,49.80
2019-02-18T00:32:52.209Z,49.63
2019-02-18T00:35:23.720Z,53.40
2019-02-18T00:37:54.995Z,51.03
2019-02-18T00:40:26.318Z,52.37
2019-02-18T00:42:57.493Z,56.23
2019-02-18T00:45:28.689Z,46.87
2019-02-18T00:47:59.954Z,50.50
2019-02-18T00:50:31.161Z,48.13
2019-02-18T00:53:04.022Z,54.90
2019-02-18T00:55:35.569Z,56.33
2019-02-18T00:58:06.686Z,49.13
2019-02-18T01:00:37.920Z,49.97
2019-02-18T01:03:09.262Z,51.63
2019-02-18T01:05:40.587Z,46.57
2019-02-18T01:08:11.776Z,55.97
2019-02-18T01:10:43.041Z,50.23
2019-02-18T01:13:14.311Z,45.17
2019-02-18T01:15:45.446Z,45.97
2019-02-18T01:18:16.682Z,48.50
2019-02-18T01:20:47.802Z,45.77
2019-02-18T01:23:19.274Z,48.97
2019-02-18T01:25:50.688Z,46.40
2019-02-18T01:28:21.900Z,44.20
2019-02-18T01:30:53.460Z,50.03
2019-02-18T01:33:24.683Z,53.60
2019-02-18T01:35:56.214Z,45.57
2019-02-18T01:38:27.413Z,54.80
2019-02-18T01:40:58.701Z,47.03
2019-02-18T01:43:29.952Z,47.70
2019-02-18T01:46:01.313Z,50.23
2019-02-18T01:48:32.501Z,51.70
2019-02-18T01:51:04.901Z,46.53
2019-02-18T01:53:36.221Z,45.93
2019-02-18T01:56:07.401Z,44.93
2019-02-18T01:58:38.647Z,47.10
2019-02-18T02:01:09.793Z,52.40
2019-02-18T02:03:41.302Z,42.57
2019-02-18T02:06:12.544Z,45.27
2019-02-18T02:08:43.801Z,43.10
2019-02-18T02:11:15.162Z,44.37
2019-02-18T02:13:46.355Z,50.33
2019-02-18T02:16:17.506Z,46.97
2019-02-18T02:18:48.723Z,45.27
2019-02-18T02:21:19.955Z,47.90
2019-02-18T02:23:51.220Z,47.27
2019-02-18T02:26:22.418Z,49.47
2019-02-18T02:28:53.667Z,48.13
2019-02-18T02:31:25.876Z,46.93
2019-02-18T02:33:57.217Z,43.93
2019-02-18T02:36:28.453Z,42.80
2019-02-18T02:38:59.719Z,45.90
2019-02-18T02:41:31.550Z,55.27
2019-02-18T02:44:03.011Z,47.00
2019-02-18T02:46:34.256Z,50.40
2019-02-18T02:49:05.503Z,47.13
2019-02-18T02:51:36.662Z,43.67
2019-02-18T02:54:09.011Z,45.60
2019-02-18T02:56:40.508Z,45.60
2019-02-18T02:59:11.741Z,49.73
2019-02-18T03:01:43.011Z,48.57
2019-02-18T03:04:14.241Z,41.07
2019-02-18T03:06:45.501Z,39.90
2019-02-18T03:09:16.846Z,43.23
2019-02-18T03:11:48.298Z,42.60
2019-02-18T03:14:19.485Z,42.70
2019-02-18T03:16:50.723Z,45.10
2019-02-18T03:19:21.928Z,46.03
2019-02-18T03:21:53.165Z,47.87
2019-02-18T03:24:24.403Z,40.90
2019-02-18T03:26:55.570Z,43.40
2019-02-18T03:30:13.814Z,46.67
2019-02-18T03:32:50.024Z,41.77
2019-02-18T03:35:21.157Z,42.20
2019-02-18T03:37:52.365Z,44.53
2019-02-18T03:40:23.873Z,48.53
2019-02-18T03:42:55.163Z,44.50
2019-02-18T03:45:26.379Z,45.43
2019-02-18T03:47:58.641Z,46.17
2019-02-18T03:50:29.831Z,43.50
2019-02-18T03:53:01.042Z,41.90
2019-02-18T03:55:32.311Z,40.27
2019-02-18T03:58:03.494Z,40.90
2019-02-18T04:00:34.708Z,39.93
2019-02-18T04:03:05.899Z,41.57
2019-02-18T04:05:37.077Z,38.90
2019-02-18T04:08:08.253Z,35.60
2019-02-18T04:10:39.774Z,43.00
2019-02-18T04:13:11.070Z,45.50
2019-02-18T04:15:42.523Z,37.77
2019-02-18T04:18:26.384Z,39.17
2019-02-18T04:20:57.601Z,38.83
2019-02-18T04:23:28.771Z,39.33
2019-02-18T04:26:01.117Z,37.27
2019-02-18T04:28:32.434Z,41.87
2019-02-18T04:31:03.659Z,39.57
2019-02-18T04:33:35.026Z,39.80
2019-02-18T04:36:06.359Z,43.47
2019-02-18T04:38:37.528Z,40.23
2019-02-18T04:41:08.738Z,41.73
2019-02-18T04:43:42.215Z,43.13
2019-02-18T04:46:13.069Z,42.63
2019-02-18T04:48:44.242Z,48.17
2019-02-18T04:51:15.445Z,55.20
2019-02-18T04:53:46.733Z,43.67
2019-02-18T04:56:17.868Z,48.03
2019-02-18T04:58:49.098Z,41.83
2019-02-18T05:01:20.316Z,36.80
2019-02-18T05:03:51.545Z,45.13
2019-02-18T05:06:25.380Z,43.63
2019-02-18T05:09:05.087Z,44.60
2019-02-18T05:11:28.907Z,40.37
2019-02-18T05:14:00.212Z,39.40
2019-02-18T05:16:31.566Z,40.73
2019-02-18T05:19:02.768Z,39.97
2019-02-18T05:21:33.963Z,39.27
2019-02-18T05:24:05.182Z,37.53
2019-02-18T05:26:36.574Z,38.30
2019-02-18T05:29:08.009Z,41.93
2019-02-18T05:31:39.116Z,46.43
2019-02-18T05:34:10.372Z,37.13
2019-02-18T05:36:41.554Z,37.40
2019-02-18T05:39:18.081Z,39.80
2019-02-18T05:41:45.715Z,42.63
2019-02-18T05:44:16.976Z,41.80
2019-02-18T05:46:48.228Z,44.17
2019-02-18T05:49:19.446Z,41.80
2019-02-18T05:51:50.731Z,42.30
2019-02-18T05:54:21.918Z,41.87
2019-02-18T05:56:53.192Z,40.80
2019-02-18T05:59:24.525Z,39.73
2019-02-18T06:01:55.731Z,43.60
2019-02-18T06:04:26.952Z,39.33
2019-02-18T06:06:58.136Z,39.73
2019-02-18T06:09:30.360Z,43.23
2019-02-18T06:12:01.766Z,40.57
2019-02-18T06:14:33.004Z,37.57
2019-02-18T06:17:04.203Z,40.80
2019-02-18T06:19:35.359Z,38.83
2019-02-18T06:22:06.551Z,41.73
2019-02-18T06:24:37.853Z,37.37
2019-02-18T06:27:09.054Z,40.60
2019-02-18T06:29:40.245Z,43.70
2019-02-18T06:32:11.476Z,39.30
2019-02-18T06:34:42.801Z,43.13
2019-02-18T06:37:14.115Z,43.10
2019-02-18T06:39:45.313Z,35.10
2019-02-18T06:42:16.559Z,40.07
2019-02-18T06:45:11.917Z,36.53
2019-02-18T06:47:42.818Z,44.17
2019-02-18T06:50:14.033Z,38.97
2019-02-18T06:52:45.133Z,38.90
2019-02-18T06:55:16.319Z,40.87
2019-02-18T06:58:04.456Z,35.23
2019-02-18T07:00:47.875Z,40.63
2019-02-18T07:03:44.119Z,39.67
2019-02-18T07:06:30.107Z,41.23
2019-02-18T07:09:13.991Z,39.33
2019-02-18T07:12:06.970Z,41.80
2019-02-18T07:14:38.202Z,38.23
2019-02-18T07:17:10.452Z,41.03
2019-02-18T07:19:41.785Z,39.93
2019-02-18T07:22:13.027Z,41.47
2019-02-18T07:24:45.221Z,42.60
2019-02-18T07:27:16.461Z,43.53
2019-02-18T07:29:47.578Z,42.67
2019-02-18T07:32:18.835Z,49.60
2019-02-18T07:34:49.991Z,40.90
2019-02-18T07:37:21.167Z,42.57
2019-02-18T07:40:01.229Z,40.27
2019-02-18T07:42:25.374Z,42.03
2019-02-18T07:44:56.567Z,37.73
2019-02-18T07:47:27.818Z,38.30
2019-02-18T07:49:59.138Z,41.87
2019-02-18T07:52:30.379Z,37.83
2019-02-18T07:55:01.602Z,47.97
2019-02-18T07:57:32.770Z,38.07
2019-02-18T08:00:04.094Z,43.40
2019-02-18T08:02:36.280Z,39.40
2019-02-18T08:05:07.483Z,43.63
2019-02-18T08:07:38.706Z,43.50
2019-02-18T08:10:12.295Z,40.07
2019-02-18T08:12:43.221Z,41.93
2019-02-18T08:15:14.411Z,39.27
2019-02-18T08:17:45.718Z,45.30
2019-02-18T08:20:16.905Z,43.97
2019-02-18T08:22:48.111Z,37.80
2019-02-18T08:25:19.404Z,38.63
2019-02-18T08:27:50.610Z,36.20
2019-02-18T08:30:21.798Z,33.10
2019-02-18T08:32:53.075Z,39.87
2019-02-18T08:35:24.397Z,38.53
2019-02-18T08:37:55.570Z,35.23
2019-02-18T08:40:26.810Z,38.83
2019-02-18T08:42:58.018Z,34.63
2019-02-18T08:45:29.256Z,35.10
2019-02-18T08:48:00.441Z,35.80
2019-02-18T08:50:31.720Z,37.00
2019-02-18T08:53:02.902Z,34.63
2019-02-18T08:55:34.195Z,34.13
2019-02-18T08:58:05.476Z,37.70
2019-02-18T09:00:36.615Z,30.93
2019-02-18T09:03:07.825Z,36.20
2019-02-18T09:05:39.047Z,36.57
2019-02-18T09:08:10.277Z,37.97
2019-02-18T09:10:42.536Z,35.57
2019-02-18T09:13:14.828Z,35.30
2019-02-18T09:15:46.066Z,34.70
2019-02-18T09:18:17.352Z,37.50
2019-02-18T09:20:48.754Z,33.33
2019-02-18T09:23:36.847Z,31.00
2019-02-18T09:26:08.087Z,34.97
2019-02-18T09:28:39.304Z,33.57
2019-02-18T09:31:10.507Z,31.90
2019-02-18T09:33:42.249Z,33.23
2019-02-18T09:36:13.393Z,35.33
2019-02-18T09:38:44.708Z,33.80
2019-02-18T09:41:15.883Z,32.03
2019-02-18T09:43:47.076Z,32.77
2019-02-18T09:46:18.297Z,34.60
2019-02-18T09:48:50.591Z,36.10
2019-02-18T09:51:21.847Z,29.30
2019-02-18T09:53:53.114Z,33.77
2019-02-18T09:56:24.366Z,35.37
2019-02-18T09:58:55.613Z,30.40
2019-02-18T10:01:26.920Z,33.60
2019-02-18T10:03:58.138Z,28.23
2019-02-18T10:06:29.313Z,30.60
2019-02-18T10:09:00.656Z,29.33
2019-02-18T10:11:33.602Z,27.73
2019-02-18T10:14:04.916Z,34.63
2019-02-18T10:16:36.276Z,28.80
2019-02-18T10:19:07.412Z,30.30
2019-02-18T10:21:38.560Z,27.60
2019-02-18T10:24:09.792Z,30.07
2019-02-18T10:26:40.956Z,31.00
2019-02-18T10:29:12.356Z,28.67
2019-02-18T10:31:43.561Z,29.45
2019-02-18T10:34:14.915Z,28.70
2019-02-18T10:36:46.156Z,30.70
2019-02-18T10:39:17.379Z,30.30
2019-02-18T10:41:48.755Z,28.98
2019-02-18T10:44:19.990Z,28.45
2019-02-18T10:46:51.507Z,37.58
2019-02-18T10:49:22.840Z,32.63
2019-02-18T10:51:54.625Z,30.05
2019-02-18T10:54:26.055Z,31.37
2019-02-18T10:56:57.260Z,29.32
2019-02-18T10:59:28.513Z,30.17
2019-02-18T11:01:59.671Z,28.50
2019-02-18T11:04:31.154Z,26.03
2019-02-18T11:07:02.476Z,26.90
2019-02-18T11:09:33.702Z,28.17
2019-02-18T11:12:05.078Z,24.73
2019-02-18T11:14:36.279Z,27.37
2019-02-18T11:17:07.577Z,29.20
2019-02-18T11:19:38.821Z,27.95
2019-02-18T11:22:10.115Z,23.05
2019-02-18T11:24:41.560Z,25.20
2019-02-18T11:27:12.917Z,24.87
2019-02-18T11:29:44.198Z,28.98
2019-02-18T11:32:15.492Z,26.30
2019-02-18T11:34:46.718Z,25.27
2019-02-18T11:37:17.952Z,20.80
2019-02-18T11:39:49.156Z,26.40
2019-02-18T11:42:20.428Z,22.20
2019-02-18T11:44:51.756Z,20.80
2019-02-18T11:47:22.971Z,20.80
2019-02-18T11:49:55.250Z,22.30
2019-02-18T11:52:26.726Z,26.17
2019-02-18T11:54:57.937Z,21.05
2019-02-18T11:57:31.638Z,21.17
2019-02-18T12:00:02.536Z,24.32
2019-02-18T12:02:34.984Z,24.20
2019-02-18T12:05:06.813Z,21.17
2019-02-18T12:07:38.117Z,24.25
2019-02-18T12:10:09.815Z,20.77
2019-02-18T12:12:41.652Z,20.37
2019-02-18T12:15:13.083Z,21.68
2019-02-18T12:17:44.348Z,22.22
2019-02-18T12:20:15.560Z,23.42
2019-02-18T12:22:47.064Z,20.48
2019-02-18T12:25:18.277Z,19.45
2019-02-18T12:27:49.506Z,22.37
2019-02-18T12:30:20.817Z,22.40
2019-02-18T12:32:52.144Z,20.40
2019-02-18T12:35:30.964Z,21.00
2019-02-18T12:37:56.284Z,23.00
2019-02-18T12:40:27.542Z,21.02
2019-02-18T12:42:58.682Z,19.98
2019-02-18T12:45:30.030Z,21.97
2019-02-18T12:48:01.289Z,17.67
2019-02-18T12:50:32.622Z,21.12
2019-02-18T12:53:04.323Z,21.80
2019-02-18T12:55:35.612Z,22.62
2019-02-18T12:58:07.113Z,20.40
2019-02-18T13:00:38.362Z,19.65
2019-02-18T13:03:09.657Z,19.87
2019-02-18T13:05:40.964Z,24.40
2019-02-18T13:08:12.168Z,20.30
2019-02-18T13:10:43.367Z,23.27
2019-02-18T13:13:14.768Z,20.00
2019-02-18T13:15:46.065Z,18.90
2019-02-18T13:18:17.284Z,21.23
2019-02-18T13:20:48.645Z,20.15
2019-02-18T13:23:19.852Z,23.15
2019-02-18T13:25:51.137Z,21.77
2019-02-18T13:28:22.288Z,23.18
2019-02-18T13:30:53.495Z,26.35
2019-02-18T13:33:24.717Z,22.25
2019-02-18T13:35:56.289Z,19.55
2019-02-18T13:38:27.562Z,24.05
2019-02-18T13:40:58.806Z,22.35
2019-02-18T13:43:30.088Z,22.13
2019-02-18T13:46:01.303Z,23.00
2019-02-18T13:48:32.960Z,22.93
2019-02-18T13:51:04.180Z,24.98
2019-02-18T13:53:35.567Z,28.47
2019-02-18T13:56:07.842Z,22.77
2019-02-18T13:58:39.139Z,22.42
2019-02-18T14:01:11.919Z,23.98
2019-02-18T14:03:43.126Z,20.08
2019-02-18T14:06:14.361Z,21.05
2019-02-18T14:08:45.779Z,21.62
2019-02-18T14:11:16.998Z,20.88
2019-02-18T14:13:48.673Z,22.15
2019-02-18T14:16:19.810Z,25.40
2019-02-18T14:18:51.179Z,24.52
2019-02-18T14:21:22.427Z,23.45
2019-02-18T14:23:53.610Z,23.35
2019-02-18T14:26:25.431Z,21.95
2019-02-18T14:28:56.636Z,22.42
2019-02-18T14:31:27.984Z,23.75
2019-02-18T14:33:59.180Z,24.37
2019-02-18T14:36:30.424Z,22.82
2019-02-18T14:39:02.223Z,20.27
2019-02-18T14:41:34.156Z,23.83
2019-02-18T14:44:05.591Z,23.20
2019-02-18T14:46:36.780Z,20.88
2019-02-18T14:49:08.014Z,26.23
2019-02-18T14:51:39.694Z,21.07
2019-02-18T14:54:10.922Z,21.48
2019-02-18T14:56:42.511Z,22.90
2019-02-18T14:59:13.732Z,21.68
2019-02-18T15:01:45.161Z,21.45
2019-02-18T15:04:16.880Z,25.35
2019-02-18T15:06:48.190Z,21.50
2019-02-18T15:09:19.471Z,24.77
2019-02-18T15:11:50.692Z,26.17
2019-02-18T15:14:21.978Z,26.12
2019-02-18T15:16:57.765Z,22.77
2019-02-18T15:19:30.240Z,22.60
2019-02-18T15:22:01.540Z,20.92
2019-02-18T15:24:32.896Z,26.93
2019-02-18T15:27:04.325Z,23.18
2019-02-18T15:29:36.025Z,24.45
2019-02-18T15:32:07.500Z,27.40
2019-02-18T15:34:38.847Z,24.35
2019-02-18T15:37:10.214Z,26.65
2019-02-18T15:39:41.528Z,29.37
2019-02-18T15:42:13.165Z,26.10
2019-02-18T15:44:44.404Z,23.90
2019-02-18T15:47:15.784Z,28.75
2019-02-18T15:49:47.130Z,23.18
2019-02-18T15:52:18.459Z,24.12
2019-02-18T15:54:49.927Z,25.80
2019-02-18T15:57:21.122Z,26.10
2019-02-18T15:59:52.344Z,24.82
2019-02-18T16:02:23.610Z,26.73
2019-02-18T16:04:54.809Z,26.23
2019-02-18T16:07:26.569Z,23.77
2019-02-18T16:09:57.886Z,28.30
2019-02-18T16:12:30.112Z,28.98
2019-02-18T16:15:01.328Z,23.22
2019-02-18T16:17:32.547Z,26.37
2019-02-18T16:20:04.498Z,26.17
2019-02-18T16:22:35.766Z,23.42
2019-02-18T16:25:09.574Z,26.07
2019-02-18T16:27:40.934Z,24.27
2019-02-18T16:30:13.724Z,23.75
2019-02-18T16:32:45.440Z,25.88
2019-02-18T16:35:16.683Z,20.65
2019-02-18T16:37:48.040Z,23.15
2019-02-18T16:40:19.424Z,29.92
2019-02-18T16:42:58.993Z,24.85
2019-02-18T16:45:25.428Z,26.73
2019-02-18T16:47:56.810Z,25.23
2019-02-18T16:50:28.029Z,27.80
2019-02-18T16:52:59.493Z,25.08
2019-02-18T16:55:30.835Z,25.45
2019-02-18T16:58:02.098Z,25.75
2019-02-18T17:00:34.110Z,24.15
2019-02-18T17:03:05.376Z,27.07
2019-02-18T17:05:36.586Z,29.37
2019-02-18T17:08:07.883Z,27.32
2019-02-18T17:10:39.115Z,24.92
2019-02-18T17:13:10.307Z,27.00
2019-02-18T17:15:41.579Z,24.12
2019-02-18T17:18:12.865Z,23.75
2019-02-18T17:20:45.069Z,23.18
2019-02-18T17:23:16.586Z,29.48
2019-02-18T17:25:47.980Z,25.10
2019-02-18T17:28:19.305Z,28.62
2019-02-18T17:30:50.703Z,24.87
2019-02-18T17:33:21.994Z,24.57
2019-02-18T17:35:53.498Z,27.60
2019-02-18T17:38:25.817Z,25.32
2019-02-18T17:40:57.190Z,27.35
2019-02-18T17:43:28.472Z,27.45
2019-02-18T17:45:59.851Z,26.30
2019-02-18T17:48:31.474Z,28.38
2019-02-18T17:51:02.809Z,29.05
2019-02-18T17:53:34.059Z,26.05
2019-02-18T17:56:05.390Z,24.52
2019-02-18T17:58:36.943Z,25.80
2019-02-18T18:01:08.721Z,46.77
2019-02-18T18:03:40.066Z,43.95
2019-02-18T18:06:11.422Z,32.90
2019-02-18T18:08:42.866Z,29.18
2019-02-18T18:11:14.197Z,28.77
2019-02-18T18:13:46.913Z,30.00
2019-02-18T18:16:18.180Z,32.67
2019-02-18T18:18:49.554Z,30.00
2019-02-18T18:21:20.927Z,23.92
2019-02-18T18:23:52.251Z,36.20
2019-02-18T18:26:23.865Z,91.63
2019-02-18T18:28:55.100Z,36.48
2019-02-18T18:31:26.374Z,29.15
2019-02-18T18:33:57.609Z,28.87
2019-02-18T18:36:28.830Z,28.98
2019-02-18T18:39:00.087Z,33.38
2019-02-18T18:41:31.787Z,26.65
2019-02-18T18:44:03.140Z,31.23
2019-02-18T18:46:34.450Z,31.85
2019-02-18T18:49:05.737Z,65.97
2019-02-18T18:51:37.369Z,62.13
2019-02-18T18:54:08.603Z,38.78
2019-02-18T18:56:39.895Z,33.28
2019-02-18T18:59:11.387Z,30.77
2019-02-18T19:01:42.641Z,30.95
2019-02-18T19:04:14.247Z,28.42
2019-02-18T19:06:45.565Z,28.27
2019-02-18T19:09:16.789Z,32.33
2019-02-18T19:11:48.123Z,30.30
2019-02-18T19:14:19.350Z,31.07
2019-02-18T19:16:50.876Z,31.48
2019-02-18T19:19:22.047Z,31.80
2019-02-18T19:21:53.344Z,35.92
2019-02-18T19:24:24.560Z,48.38
2019-02-18T19:26:55.762Z,31.85
2019-02-18T19:29:27.233Z,29.90
2019-02-18T19:31:58.574Z,29.80
2019-02-18T19:34:29.800Z,31.45
2019-02-18T19:37:01.173Z,31.13
2019-02-18T19:39:32.532Z,32.07
2019-02-18T19:42:03.885Z,36.23
2019-02-18T19:44:35.132Z,84.67
2019-02-18T19:47:06.408Z,48.40
2019-02-18T19:49:37.574Z,36.63
2019-02-18T19:52:09.972Z,31.85
2019-02-18T19:54:41.281Z,34.83
2019-02-18T19:57:14.104Z,36.47
2019-02-18T19:59:45.353Z,44.33
2019-02-18T20:02:16.591Z,70.20
2019-02-18T20:04:47.772Z,78.43
2019-02-18T20:07:19.065Z,39.50
2019-02-18T20:09:50.305Z,35.45
2019-02-18T20:12:22.454Z,35.03
2019-02-18T20:14:54.070Z,28.87
2019-02-18T20:17:25.368Z,29.57
2019-02-18T20:19:56.905Z,34.30
2019-02-18T20:22:28.088Z,39.60
2019-02-18T20:24:59.434Z,34.87
2019-02-18T20:27:30.768Z,35.10
2019-02-18T20:30:02.214Z,34.13
2019-02-18T20:32:34.958Z,33.00
2019-02-18T20:35:06.507Z,34.60
2019-02-18T20:37:37.684Z,32.87
2019-02-18T20:40:09.032Z,33.37
2019-02-18T20:42:40.724Z,34.50
2019-02-18T20:45:12.706Z,33.27
2019-02-18T20:47:44.095Z,31.53
2019-02-18T20:50:15.437Z,38.07
2019-02-18T20:52:48.283Z,30.97
2019-02-18T20:55:21.009Z,34.63
2019-02-18T20:57:52.205Z,36.67
2019-02-18T21:00:23.462Z,35.17
2019-02-18T21:02:55.014Z,40.97
2019-02-18T21:05:26.336Z,38.97
2019-02-18T21:07:58.148Z,38.57
2019-02-18T21:10:29.571Z,35.27
2019-02-18T21:13:00.875Z,33.83
2019-02-18T21:15:32.204Z,34.93
2019-02-18T21:18:03.837Z,31.70
2019-02-18T21:20:35.897Z,33.20
2019-02-18T21:23:07.440Z,34.60
2019-02-18T21:25:38.966Z,32.27
2019-02-18T21:28:10.488Z,29.57
2019-02-18T21:30:42.726Z,36.97
2019-02-18T21:33:14.481Z,33.03
2019-02-18T21:35:45.743Z,37.93
2019-02-18T21:38:16.953Z,30.13
2019-02-18T21:40:48.264Z,29.93
2019-02-18T21:43:19.605Z,26.53
2019-02-18T21:45:51.115Z,29.50
2019-02-18T21:48:22.469Z,27.23
2019-02-18T21:50:53.719Z,35.03
2019-02-18T21:53:25.037Z,29.77
2019-02-18T21:55:56.235Z,34.50
2019-02-18T21:58:28.775Z,31.90
2019-02-18T22:01:00.060Z,31.33
2019-02-18T22:03:31.206Z,28.63
2019-02-18T22:06:02.543Z,33.60
2019-02-18T22:08:33.846Z,30.70
2019-02-18T22:11:05.425Z,33.00
2019-02-18T22:13:36.733Z,29.30
2019-02-18T22:16:08.041Z,35.27
2019-02-18T22:18:39.337Z,29.03
2019-02-18T22:21:13.425Z,30.63
2019-02-18T22:23:45.798Z,32.53
2019-02-18T22:26:17.083Z,36.80
2019-02-18T22:28:48.290Z,31.47
2019-02-18T22:31:19.544Z,32.37
2019-02-18T22:33:50.839Z,32.60
2019-02-18T22:36:22.077Z,31.67
2019-02-18T22:38:53.247Z,32.70
2019-02-18T22:41:25.408Z,33.43
2019-02-18T22:43:56.642Z,26.37
2019-02-18T22:46:27.945Z,30.87
2019-02-18T22:48:59.259Z,32.63
2019-02-18T22:51:30.806Z,31.60
2019-02-18T22:54:02.124Z,33.40
2019-02-18T22:56:33.368Z,32.20
2019-02-18T22:59:04.749Z,31.97
2019-02-18T23:01:36.035Z,29.40
2019-02-18T23:04:07.559Z,33.60
2019-02-18T23:06:38.795Z,29.37
2019-02-18T23:09:12.538Z,31.23
2019-02-18T23:11:43.791Z,31.07
2019-02-18T23:14:14.960Z,33.00
2019-02-18T23:16:46.587Z,29.80
2019-02-18T23:19:17.912Z,29.17
2019-02-18T23:21:50.454Z,29.87
2019-02-18T23:24:21.678Z,30.80
2019-02-18T23:26:52.931Z,32.03
2019-02-18T23:29:24.149Z,33.63
2019-02-18T23:31:55.358Z,36.53
2019-02-18T23:34:27.548Z,28.80
2019-02-18T23:36:58.718Z,29.53
2019-02-18T23:39:29.925Z,39.13
2019-02-18T23:42:01.374Z,34.07
2019-02-18T23:44:32.587Z,31.70
2019-02-18T23:47:03.783Z,34.00
2019-02-18T23:49:35.128Z,30.80
2019-02-18T23:52:06.431Z,27.83
2019-02-18T23:54:37.824Z,25.53
2019-02-18T23:57:08.946Z,24.67
2019-02-18T23:59:40.127Z,21.10
